createdAt,value
2022-11-06T00:00:14.490Z,96848.28
2022-11-06T00:02:59.525Z,96844.00
2022-11-06T00:05:44.974Z,96843.63
2022-11-06T00:08:30.167Z,96831.44
2022-11-06T00:11:16.923Z,96834.00
2022-11-06T00:14:01.828Z,96832.34
2022-11-06T00:16:46.639Z,96829.31
2022-11-06T00:19:31.591Z,96842.41
2022-11-06T00:22:16.706Z,96834.50
2022-11-06T00:25:01.746Z,96835.09
2022-11-06T00:27:46.739Z,96832.94
2022-11-06T00:30:31.574Z,96832.44
2022-11-06T00:33:16.506Z,96825.84
2022-11-06T00:36:01.768Z,96818.97
2022-11-06T00:38:46.599Z,96820.84
2022-11-06T00:41:31.539Z,96805.97
2022-11-06T00:44:16.414Z,96808.19
2022-11-06T00:47:01.499Z,96802.38
2022-11-06T00:49:46.267Z,96799.47
2022-11-06T00:52:31.179Z,96798.34
2022-11-06T00:55:16.002Z,96793.34
2022-11-06T00:58:00.990Z,96786.03
2022-11-06T01:00:45.932Z,96784.47
2022-11-06T01:03:30.908Z,96774.53
2022-11-06T01:06:15.862Z,96780.13
2022-11-06T01:09:00.748Z,96778.16
2022-11-06T01:14:50.859Z,96778.50
2022-11-06T01:17:35.745Z,96782.03
2022-11-06T01:20:20.907Z,96781.47
2022-11-06T01:23:05.831Z,96769.84
2022-11-06T01:25:50.701Z,96774.44
2022-11-06T01:28:35.379Z,96783.94
2022-11-06T01:31:20.402Z,96783.13
2022-11-06T01:34:05.528Z,96783.78
2022-11-06T01:36:50.665Z,96768.75
2022-11-06T01:39:35.543Z,96764.34
2022-11-06T01:42:20.405Z,96757.44
2022-11-06T01:45:05.298Z,96746.28
2022-11-06T01:47:50.403Z,96743.22
2022-11-06T01:50:35.425Z,96741.22
2022-11-06T01:53:20.428Z,96741.97
2022-11-06T01:56:05.380Z,96731.22
2022-11-06T01:58:50.223Z,96731.41
2022-11-06T02:01:35.282Z,96722.25
2022-11-06T02:04:20.627Z,96729.22
2022-11-06T02:07:05.536Z,96737.22
2022-11-06T02:09:50.517Z,96739.88
2022-11-06T02:12:35.483Z,96725.69
2022-11-06T02:15:20.498Z,96724.44
2022-11-06T02:18:05.243Z,96727.84
2022-11-06T02:20:50.260Z,96717.34
2022-11-06T02:23:35.015Z,96717.78
2022-11-06T02:26:19.904Z,96709.13
2022-11-06T02:29:04.928Z,96699.59
2022-11-06T02:31:49.732Z,96685.44
2022-11-06T02:34:34.666Z,96694.66
2022-11-06T02:37:19.498Z,96690.69
2022-11-06T02:40:04.493Z,96688.72
2022-11-06T02:42:49.350Z,96688.44
2022-11-06T02:45:34.289Z,96693.66
2022-11-06T02:48:19.059Z,96675.75
2022-11-06T02:51:04.014Z,96685.78
2022-11-06T02:53:48.817Z,96690.06
2022-11-06T02:56:33.632Z,96682.34
2022-11-06T02:59:18.605Z,96688.72
2022-11-06T03:02:03.472Z,96694.72
2022-11-06T03:04:48.815Z,96702.50
2022-11-06T03:07:33.722Z,96694.72
2022-11-06T03:10:18.755Z,96693.06
2022-11-06T03:13:03.694Z,96690.81
2022-11-06T03:15:48.558Z,96679.91
2022-11-06T03:18:33.234Z,96679.91
2022-11-06T03:21:18.078Z,96684.78
2022-11-06T03:24:03.147Z,96687.03
2022-11-06T03:26:48.014Z,96685.19
2022-11-06T03:29:32.899Z,96686.09
2022-11-06T03:32:17.813Z,96688.38
2022-11-06T03:35:02.728Z,96690.88
2022-11-06T03:37:47.607Z,96692.56
2022-11-06T03:40:32.568Z,96686.94
2022-11-06T03:43:17.347Z,96674.31
2022-11-06T03:46:02.222Z,96670.38
2022-11-06T03:48:47.318Z,96661.94
2022-11-06T03:51:32.114Z,96667.72
2022-11-06T03:54:16.981Z,96677.16
2022-11-06T03:57:01.926Z,96672.56
2022-11-06T03:59:46.683Z,96670.41
2022-11-06T04:02:31.645Z,96664.22
2022-11-06T04:05:16.937Z,96671.50
2022-11-06T04:08:01.810Z,96679.22
2022-11-06T04:10:46.605Z,96676.09
2022-11-06T04:13:31.695Z,96667.53
2022-11-06T04:16:16.493Z,96672.28
2022-11-06T04:19:01.463Z,96677.88
2022-11-06T04:21:46.229Z,96673.34
2022-11-06T04:24:31.195Z,96680.69
2022-11-06T04:27:15.953Z,96687.97
2022-11-06T04:30:00.920Z,96689.44
2022-11-06T04:32:45.776Z,96684.75
2022-11-06T04:35:30.630Z,96680.28
2022-11-06T04:38:16.197Z,96681.75
2022-11-06T04:41:01.485Z,96674.28
2022-11-06T04:43:46.346Z,96671.25
2022-11-06T04:46:31.131Z,96661.75
2022-11-06T04:49:15.993Z,96656.59
2022-11-06T04:52:00.866Z,96655.78
2022-11-06T04:54:45.792Z,96649.72
2022-11-06T04:57:30.819Z,96646.03
2022-11-06T05:00:15.659Z,96650.31
2022-11-06T05:03:00.648Z,96648.84
2022-11-06T05:05:45.515Z,96648.00
2022-11-06T05:08:30.726Z,96644.28
2022-11-06T05:11:15.832Z,96637.28
2022-11-06T05:14:00.960Z,96628.03
2022-11-06T05:16:45.904Z,96618.44
2022-11-06T05:19:30.728Z,96620.69
2022-11-06T05:22:15.556Z,96612.72
2022-11-06T05:25:00.376Z,96610.41
2022-11-06T05:27:45.268Z,96613.31
2022-11-06T05:30:30.224Z,96611.88
2022-11-06T05:33:15.225Z,96602.69
2022-11-06T05:36:00.136Z,96597.13
2022-11-06T05:38:45.194Z,96593.47
2022-11-06T05:41:30.088Z,96595.50
2022-11-06T05:44:14.993Z,96587.19
2022-11-06T05:46:59.956Z,96590.38
2022-11-06T05:49:44.756Z,96584.03
2022-11-06T05:52:29.697Z,96585.66
2022-11-06T05:55:15.457Z,96576.09
2022-11-06T05:58:00.420Z,96576.47
2022-11-06T06:00:45.349Z,96570.13
2022-11-06T06:03:30.160Z,96564.81
2022-11-06T06:06:15.079Z,96568.06
2022-11-06T06:08:59.907Z,96561.50
2022-11-06T06:11:45.008Z,96559.63
2022-11-06T06:14:29.918Z,96551.09
2022-11-06T06:17:14.886Z,96548.81
2022-11-06T06:19:59.712Z,96548.50
2022-11-06T06:22:45.155Z,96555.31
2022-11-06T06:25:30.118Z,96561.28
2022-11-06T06:28:15.521Z,96564.19
2022-11-06T06:31:01.956Z,96553.56
2022-11-06T06:33:47.095Z,96557.09
2022-11-06T06:36:31.949Z,96551.38
2022-11-06T06:39:16.737Z,96554.00
2022-11-06T06:42:01.569Z,96545.66
2022-11-06T06:44:46.456Z,96542.44
2022-11-06T06:47:31.402Z,96547.44
2022-11-06T06:50:16.565Z,96548.88
2022-11-06T06:53:01.454Z,96547.13
2022-11-06T06:55:46.449Z,96552.88
2022-11-06T06:58:31.297Z,96566.78
2022-11-06T07:01:16.245Z,96571.31
2022-11-06T07:04:04.216Z,96566.44
2022-11-06T07:06:49.783Z,96574.19
2022-11-06T07:09:34.683Z,96575.03
2022-11-06T07:12:19.545Z,96570.13
2022-11-06T07:15:04.514Z,96573.41
2022-11-06T07:17:49.482Z,96565.59
2022-11-06T07:20:34.429Z,96556.63
2022-11-06T07:23:19.414Z,96562.78
2022-11-06T07:26:04.338Z,96555.22
2022-11-06T07:28:49.274Z,96550.50
2022-11-06T07:31:34.163Z,96549.06
2022-11-06T07:34:19.007Z,96559.72
2022-11-06T07:37:07.477Z,96555.41
2022-11-06T07:39:52.822Z,96550.66
2022-11-06T07:42:43.137Z,96543.72
2022-11-06T07:45:28.747Z,96547.81
2022-11-06T07:48:13.678Z,96548.78
2022-11-06T07:50:58.944Z,96543.97
2022-11-06T07:53:43.734Z,96542.72
2022-11-06T07:56:28.604Z,96548.16
2022-11-06T07:59:13.548Z,96541.78
2022-11-06T08:01:58.838Z,96540.63
2022-11-06T08:04:44.119Z,96539.59
2022-11-06T08:07:29.050Z,96538.19
2022-11-06T08:10:14.062Z,96525.66
2022-11-06T08:12:59.071Z,96525.00
2022-11-06T08:15:44.050Z,96530.88
2022-11-06T08:18:28.857Z,96538.22
2022-11-06T08:21:13.805Z,96541.53
2022-11-06T08:23:58.787Z,96536.84
2022-11-06T08:26:43.873Z,96539.94
2022-11-06T08:29:28.755Z,96538.06
2022-11-06T08:32:13.699Z,96525.63
2022-11-06T08:34:58.532Z,96519.94
2022-11-06T08:37:43.437Z,96522.88
2022-11-06T08:40:31.153Z,96512.75
2022-11-06T08:43:16.493Z,96515.19
2022-11-06T08:46:01.967Z,96513.28
2022-11-06T08:48:46.917Z,96511.22
2022-11-06T08:51:31.880Z,96509.41
2022-11-06T08:54:17.212Z,96512.69
2022-11-06T08:57:02.122Z,96518.09
2022-11-06T08:59:47.447Z,96520.19
2022-11-06T09:02:32.469Z,96528.47
2022-11-06T09:05:17.291Z,96535.94
2022-11-06T09:08:02.297Z,96539.25
2022-11-06T09:10:47.167Z,96536.09
2022-11-06T09:13:32.156Z,96531.25
2022-11-06T09:16:16.958Z,96515.66
2022-11-06T09:19:01.885Z,96506.25
2022-11-06T09:21:51.857Z,96500.91
2022-11-06T09:25:02.084Z,96496.53
2022-11-06T09:27:44.726Z,96492.63
2022-11-06T09:30:29.698Z,96500.97
2022-11-06T09:33:15.018Z,96489.91
2022-11-06T09:36:00.233Z,96493.34
2022-11-06T09:38:45.198Z,96495.81
2022-11-06T09:41:30.143Z,96500.19
2022-11-06T09:44:15.301Z,96499.22
2022-11-06T09:47:00.054Z,96502.13
2022-11-06T09:49:44.916Z,96491.88
2022-11-06T09:52:29.779Z,96489.13
2022-11-06T09:55:15.078Z,96487.63
2022-11-06T09:58:00.390Z,96481.84
2022-11-06T10:00:45.327Z,96478.50
2022-11-06T10:04:53.408Z,96471.41
2022-11-06T10:07:38.236Z,96482.50
2022-11-06T10:12:37.734Z,96491.41
2022-11-06T10:15:22.890Z,96492.78
2022-11-06T10:18:07.848Z,96483.91
2022-11-06T10:20:52.744Z,96494.81
2022-11-06T10:23:37.705Z,96491.84
2022-11-06T10:26:22.490Z,96490.06
2022-11-06T10:29:07.828Z,96497.25
2022-11-06T10:31:52.682Z,96486.78
2022-11-06T10:34:37.659Z,96483.69
2022-11-06T10:37:22.485Z,96478.34
2022-11-06T10:40:07.532Z,96469.06
2022-11-06T10:42:52.269Z,96469.44
2022-11-06T10:45:37.240Z,96454.56
2022-11-06T10:48:24.887Z,96448.69
2022-11-06T10:51:14.012Z,96462.03
2022-11-06T10:53:59.065Z,96463.00
2022-11-06T10:56:43.977Z,96460.84
2022-11-06T10:59:29.322Z,96444.81
2022-11-06T11:02:14.210Z,96455.28
2022-11-06T11:04:59.099Z,96454.00
2022-11-06T11:07:44.122Z,96447.63
2022-11-06T11:10:29.170Z,96438.75
2022-11-06T11:13:13.971Z,96433.72
2022-11-06T11:15:58.999Z,96427.50
2022-11-06T11:18:43.738Z,96433.38
2022-11-06T11:21:28.907Z,96435.00
2022-11-06T11:24:13.712Z,96428.38
2022-11-06T11:26:58.575Z,96437.72
2022-11-06T11:29:43.452Z,96433.47
2022-11-06T11:32:28.340Z,96436.75
2022-11-06T11:35:13.305Z,96416.94
2022-11-06T11:37:58.310Z,96432.06
2022-11-06T11:40:43.092Z,96414.00
2022-11-06T11:43:28.204Z,96421.84
2022-11-06T11:46:13.158Z,96404.88
2022-11-06T11:48:57.977Z,96403.66
2022-11-06T11:51:42.901Z,96391.91
2022-11-06T11:54:27.792Z,96381.72
2022-11-06T11:57:12.748Z,96382.41
2022-11-06T11:59:57.691Z,96380.81
2022-11-06T12:02:42.682Z,96367.72
2022-11-06T12:05:27.870Z,96376.75
2022-11-06T12:08:13.117Z,96382.13
2022-11-06T12:10:58.453Z,96377.44
2022-11-06T12:13:43.234Z,96374.56
2022-11-06T12:16:28.196Z,96362.69
2022-11-06T12:19:13.070Z,96349.38
2022-11-06T12:21:57.989Z,96352.16
2022-11-06T12:24:42.795Z,96356.13
2022-11-06T12:27:27.818Z,96344.50
2022-11-06T12:30:12.763Z,96347.38
2022-11-06T12:32:57.659Z,96351.81
2022-11-06T12:35:42.584Z,96347.03
2022-11-06T12:38:27.478Z,96356.69
2022-11-06T12:41:12.484Z,96335.69
2022-11-06T12:43:57.292Z,96319.59
2022-11-06T12:46:42.176Z,96313.44
2022-11-06T12:49:27.001Z,96331.84
2022-11-06T12:52:11.844Z,96330.38
2022-11-06T12:54:56.731Z,96329.28
2022-11-06T12:57:41.700Z,96336.06
2022-11-06T13:00:31.502Z,96337.66
2022-11-06T13:03:17.197Z,96329.63
2022-11-06T13:06:02.099Z,96332.19
2022-11-06T13:08:47.149Z,96332.84
2022-11-06T13:11:32.072Z,96323.81
2022-11-06T13:14:16.990Z,96322.09
2022-11-06T13:17:01.916Z,96309.81
2022-11-06T13:19:46.826Z,96307.03
2022-11-06T13:22:31.949Z,96307.00
2022-11-06T13:25:16.891Z,96309.63
2022-11-06T13:28:02.045Z,96307.03
2022-11-06T13:30:46.943Z,96303.28
2022-11-06T13:33:31.848Z,96292.06
2022-11-06T13:36:16.678Z,96294.09
2022-11-06T13:39:01.765Z,96300.03
2022-11-06T13:41:46.546Z,96295.25
2022-11-06T13:44:31.440Z,96290.16
2022-11-06T13:47:16.410Z,96293.84
2022-11-06T13:50:01.350Z,96297.47
2022-11-06T13:52:46.309Z,96314.00
2022-11-06T13:55:31.207Z,96304.91
2022-11-06T13:58:16.974Z,96312.94
2022-11-06T14:01:02.228Z,96320.28
2022-11-06T14:03:47.503Z,96313.56
2022-11-06T14:06:32.340Z,96314.00
2022-11-06T14:09:17.227Z,96315.06
2022-11-06T14:12:02.134Z,96310.41
2022-11-06T14:14:46.971Z,96303.69
2022-11-06T14:17:31.894Z,96300.31
2022-11-06T14:20:16.934Z,96308.44
2022-11-06T14:23:01.825Z,96304.88
2022-11-06T14:25:46.783Z,96307.22
2022-11-06T14:28:31.739Z,96303.31
2022-11-06T14:31:22.619Z,96291.16
2022-11-06T14:34:10.173Z,96300.38
2022-11-06T14:36:55.140Z,96303.38
2022-11-06T14:39:40.135Z,96298.31
2022-11-06T14:42:27.183Z,96296.09
2022-11-06T14:45:12.304Z,96309.84
2022-11-06T14:47:57.287Z,96315.72
2022-11-06T14:50:42.143Z,96314.34
2022-11-06T14:53:26.952Z,96307.50
2022-11-06T14:56:11.975Z,96301.34
2022-11-06T14:58:56.800Z,96305.72
2022-11-06T15:01:41.717Z,96287.94
2022-11-06T15:04:27.234Z,96299.81
2022-11-06T15:07:12.250Z,96305.44
2022-11-06T15:09:57.013Z,96320.78
2022-11-06T15:12:42.051Z,96332.63
2022-11-06T15:15:26.937Z,96333.56
2022-11-06T15:18:12.462Z,96333.63
2022-11-06T15:20:57.548Z,96326.63
2022-11-06T15:23:42.452Z,96323.22
2022-11-06T15:26:27.409Z,96329.69
2022-11-06T15:29:12.227Z,96336.19
2022-11-06T15:31:57.149Z,96333.31
2022-11-06T15:34:42.018Z,96341.66
2022-11-06T15:37:27.004Z,96346.84
2022-11-06T15:40:11.716Z,96340.75
2022-11-06T15:42:56.732Z,96331.03
2022-11-06T15:45:41.601Z,96317.44
2022-11-06T15:48:26.456Z,96334.50
2022-11-06T15:51:11.455Z,96340.22
2022-11-06T15:53:56.452Z,96335.56
2022-11-06T15:56:41.449Z,96331.13
2022-11-06T15:59:26.415Z,96327.97
2022-11-06T16:02:11.541Z,96337.03
2022-11-06T16:04:56.902Z,96331.69
2022-11-06T16:07:41.910Z,96329.03
2022-11-06T16:10:26.920Z,96320.63
2022-11-06T16:13:12.225Z,96324.16
2022-11-06T16:15:57.259Z,96334.38
2022-11-06T16:18:42.135Z,96350.25
2022-11-06T16:21:27.024Z,96346.31
2022-11-06T16:24:11.859Z,96346.25
2022-11-06T16:26:56.753Z,96353.28
2022-11-06T16:29:41.656Z,96350.84
2022-11-06T16:32:26.663Z,96348.75
2022-11-06T16:35:11.463Z,96357.75
2022-11-06T16:38:12.673Z,96362.25
2022-11-06T16:41:01.722Z,96358.41
2022-11-06T16:43:46.604Z,96352.53
2022-11-06T16:46:31.585Z,96353.81
2022-11-06T16:49:16.296Z,96346.38
2022-11-06T16:52:01.357Z,96348.25
2022-11-06T16:54:46.348Z,96360.78
2022-11-06T16:57:31.219Z,96356.63
2022-11-06T17:00:16.151Z,96351.50
2022-11-06T17:03:01.070Z,96360.78
2022-11-06T17:05:46.669Z,96361.59
2022-11-06T17:08:31.689Z,96362.66
2022-11-06T17:11:16.705Z,96368.56
2022-11-06T17:14:01.577Z,96381.84
2022-11-06T17:16:46.626Z,96389.28
2022-11-06T17:19:31.747Z,96393.00
2022-11-06T17:22:17.445Z,96387.78
2022-11-06T17:25:02.365Z,96404.81
2022-11-06T17:27:47.314Z,96419.94
2022-11-06T17:30:32.130Z,96422.53
2022-11-06T17:33:17.310Z,96427.28
2022-11-06T17:36:02.580Z,96433.91
2022-11-06T17:38:47.639Z,96435.97
2022-11-06T17:41:32.682Z,96440.25
2022-11-06T17:44:17.833Z,96450.06
2022-11-06T17:47:03.228Z,96459.72
2022-11-06T17:49:48.238Z,96471.81
2022-11-06T17:52:33.355Z,96461.19
2022-11-06T17:55:18.540Z,96473.88
2022-11-06T17:58:03.439Z,96464.44
2022-11-06T18:00:48.250Z,96467.34
2022-11-06T18:03:36.564Z,96461.63
2022-11-06T18:06:21.942Z,96474.91
2022-11-06T18:09:06.851Z,96504.00
2022-11-06T18:11:51.843Z,96501.56
2022-11-06T18:14:36.672Z,96503.16
2022-11-06T18:17:21.707Z,96522.38
2022-11-06T18:20:06.592Z,96483.53
2022-11-06T18:22:51.749Z,96489.03
2022-11-06T18:25:36.558Z,96506.41
2022-11-06T18:28:21.556Z,96502.63
2022-11-06T18:31:06.417Z,96473.88
2022-11-06T18:33:51.440Z,96491.94
2022-11-06T18:36:36.358Z,96483.63
2022-11-06T18:39:21.352Z,96492.59
2022-11-06T18:42:06.406Z,96492.97
2022-11-06T18:44:51.228Z,96487.25
2022-11-06T18:47:36.171Z,96486.88
2022-11-06T18:50:21.067Z,96486.22
2022-11-06T18:53:06.076Z,96489.63
2022-11-06T18:55:51.017Z,96488.00
2022-11-06T18:58:35.935Z,96474.84
2022-11-06T19:01:20.955Z,96480.50
2022-11-06T19:04:05.817Z,96480.41
2022-11-06T19:06:50.644Z,96487.38
2022-11-06T19:09:35.543Z,96493.59
2022-11-06T19:12:20.627Z,96501.72
2022-11-06T19:15:05.424Z,96499.06
2022-11-06T19:17:50.436Z,96516.09
2022-11-06T19:20:35.451Z,96516.66
2022-11-06T19:23:20.145Z,96533.03
2022-11-06T19:26:29.491Z,96532.19
2022-11-06T19:29:10.296Z,96539.31
2022-11-06T19:31:55.730Z,96542.78
2022-11-06T19:34:40.807Z,96553.06
2022-11-06T19:37:25.588Z,96549.91
2022-11-06T19:40:10.547Z,96553.06
2022-11-06T19:42:55.460Z,96557.34
2022-11-06T19:45:40.399Z,96564.53
2022-11-06T19:48:25.094Z,96564.09
2022-11-06T19:51:10.028Z,96554.75
2022-11-06T19:53:54.965Z,96562.84
2022-11-06T19:57:28.224Z,96565.53
2022-11-06T19:59:45.002Z,96559.72
2022-11-06T20:02:30.208Z,96572.06
2022-11-06T20:05:15.593Z,96557.19
2022-11-06T20:08:00.474Z,96577.75
2022-11-06T20:10:45.317Z,96580.44
2022-11-06T20:13:30.376Z,96580.28
2022-11-06T20:16:15.283Z,96581.72
2022-11-06T20:19:00.260Z,96577.63
2022-11-06T20:21:45.234Z,96573.91
2022-11-06T20:24:30.110Z,96578.38
2022-11-06T20:27:15.000Z,96590.84
2022-11-06T20:29:59.742Z,96585.13
2022-11-06T20:32:44.578Z,96580.81
2022-11-06T20:35:29.460Z,96570.94
2022-11-06T20:38:14.504Z,96587.22
2022-11-06T20:40:59.368Z,96575.75
2022-11-06T20:43:44.267Z,96568.91
2022-11-06T20:46:29.021Z,96570.41
2022-11-06T20:49:14.120Z,96577.38
2022-11-06T20:52:15.484Z,96566.91
2022-11-06T20:55:00.665Z,96578.66
2022-11-06T20:57:46.053Z,96579.63
2022-11-06T21:00:31.284Z,96583.34
2022-11-06T21:03:16.973Z,96593.22
2022-11-06T21:06:02.054Z,96598.78
2022-11-06T21:08:46.964Z,96586.88
2022-11-06T21:11:31.993Z,96590.09
2022-11-06T21:14:16.925Z,96586.38
2022-11-06T21:17:01.793Z,96589.88
2022-11-06T21:19:46.610Z,96595.66
2022-11-06T21:22:31.550Z,96596.41
2022-11-06T21:25:16.509Z,96597.22
2022-11-06T21:28:01.509Z,96604.19
2022-11-06T21:30:46.305Z,96599.59
2022-11-06T21:33:31.340Z,96598.47
2022-11-06T21:36:16.303Z,96603.50
2022-11-06T21:39:01.170Z,96612.84
2022-11-06T21:41:46.117Z,96599.91
2022-11-06T21:44:30.860Z,96600.69
2022-11-06T21:47:15.811Z,96602.19
2022-11-06T21:50:00.643Z,96599.75
2022-11-06T21:52:45.513Z,96617.03
2022-11-06T21:55:30.401Z,96609.47
2022-11-06T21:58:15.450Z,96618.75
2022-11-06T22:01:00.687Z,96619.66
2022-11-06T22:03:45.566Z,96619.41
2022-11-06T22:06:30.575Z,96626.78
2022-11-06T22:09:17.462Z,96618.50
2022-11-06T22:12:05.728Z,96616.44
2022-11-06T22:14:50.586Z,96618.50
2022-11-06T22:17:35.362Z,96621.81
2022-11-06T22:20:20.313Z,96627.00
2022-11-06T22:23:05.127Z,96618.38
2022-11-06T22:25:50.042Z,96620.75
2022-11-06T22:28:34.906Z,96627.16
2022-11-06T22:31:19.737Z,96634.97
2022-11-06T22:34:04.659Z,96623.66
2022-11-06T22:36:49.469Z,96626.50
2022-11-06T22:39:34.345Z,96629.53
2022-11-06T22:42:19.242Z,96630.44
2022-11-06T22:45:04.218Z,96626.00
2022-11-06T22:47:48.961Z,96634.94
2022-11-06T22:50:33.839Z,96633.47
2022-11-06T22:53:18.828Z,96646.19
2022-11-06T22:56:04.031Z,96646.44
2022-11-06T22:58:49.082Z,96654.34
2022-11-06T23:01:38.780Z,96651.94
2022-11-06T23:04:26.350Z,96666.78
2022-11-06T23:07:11.240Z,96668.88
2022-11-06T23:09:56.082Z,96661.69
2022-11-06T23:12:40.865Z,96657.84
2022-11-06T23:15:25.846Z,96642.94
2022-11-06T23:18:10.708Z,96653.44
2022-11-06T23:20:55.736Z,96643.53
2022-11-06T23:23:40.687Z,96658.63
2022-11-06T23:26:25.644Z,96660.09
2022-11-06T23:29:10.551Z,96652.28
2022-11-06T23:31:55.360Z,96649.13
2022-11-06T23:34:40.104Z,96651.19
2022-11-06T23:37:25.186Z,96652.59
2022-11-06T23:40:10.028Z,96650.97
2022-11-06T23:42:55.043Z,96653.69
2022-11-06T23:45:39.981Z,96657.63
2022-11-06T23:48:24.927Z,96644.84
2022-11-06T23:51:09.877Z,96644.41
2022-11-06T23:53:54.984Z,96645.00
2022-11-06T23:56:40.260Z,96644.50
2022-11-06T23:59:25.127Z,96645.16
